Terminal Aerodrome Forecast
Issued by NWS

Home | Current Version | Previous Version | Text Only | Print | Product List | Glossary On
Versions: 1 2 3 4 5 6 7 8 9 10 11 12 13 14 15 16 17 18 19 20 21 22 23 24 25 26 27 28 29 30 31 32 33 34 35 36 37 38 39 40 41
000
FTUS43 KMKX 250520
TAFUES
TAF
KUES 250520Z 2506/2606 16006KT 3SM SHRA BR SCT030 OVC050
      WS020/20045KT
     FM251000 18008KT 3SM SHRA BR OVC025 WS020/20045KT
     FM251300 19013G21KT 3SM SHRA BR OVC015 WS020/20045KT
     FM251600 22014G22KT P6SM BKN050
     FM251900 23017G26KT P6SM SCT045
     FM260200 21010G17KT P6SM SCT250=

USA.gov is the U.S. government's official web portal to all federal, state and local government web resources and services.